Vicksburg, Mississippi
Current Conditions -  °F | °C
As of 12:55 AM on Friday 28 Nov 2014 (Local Time) from KVKS Reporting Station
Clear Clear  
Wind Chill: -1°   Ceiling: Unl
Heat Index: -1°   Visibility: 10mi
Dew Point: -2°   Wind: 0mph
Humidity: 93%   Direction: NA
Pressure: 30.45"   Gusts: NA
Location:  32.35°N, 90.88°W
Report Text: KVKS 280655Z AUTO 00000KT 10SM CLR M01/M02 A3045 RMK A01
Loading
Personal Weather Stations






























Interactive Weather Map New forecast layout! Learn more

10-Day Weather Forecast

Advertisements
Track Severe Weather on mobile